Time;durP1;ratioP1;P1;durP2;ratioP2;P2;SDS_P1;SDS_P2;PMS_P1;PMS_P2;Temp;Humidity;BMP_temperature;BMP_pressure;BME280_temperature;BME280_humidity;BME280_pressure;Samples;Min_cycle;Max_cycle;Signal;HPM_P1;HPM_P2
2023/09/10 00:01:28;;;;;;;;;;;;;;;27.76;43.68;101180.66;4282987;27;19969;-76
2023/09/10 00:03:32;;;;;;;;;;;;;;;27.76;43.78;101179.81;4213470;27;20385;-74
2023/09/10 00:05:34;;;;;;;;;;;;;;;27.75;43.66;101176.25;4277660;27;19926;-74
2023/09/10 00:07:36;;;;;;;;;;;;;;;27.75;43.96;101181.66;4269069;27;19923;-74
2023/09/10 00:09:38;;;;;;;;;;;;;;;27.74;44.09;101171.84;4219041;27;20229;-74
2023/09/10 00:11:40;;;;;;;;;;;;;;;27.73;43.92;101178.28;4283262;27;20724;-74
2023/09/10 00:13:41;;;;;;;;;;;;;;;27.72;43.95;101174.72;4221280;27;19929;-74
2023/09/10 00:15:43;;;;;;;;;;;;;;;27.72;43.63;101180.13;4266735;27;20394;-75
2023/09/10 00:17:45;;;;;;;;;;;;;;;27.72;43.94;101179.28;4212295;27;19948;-74
2023/09/10 00:19:46;;;;;;;;;;;;;;;27.71;43.98;101178.44;4211559;27;20284;-75
2023/09/10 00:21:48;;;;;;;;;;;;;;;27.70;43.88;101178.59;4283196;27;19923;-75
2023/09/10 00:23:49;;;;;;;;;;;;;;;27.70;43.67;101184.00;4231727;27;19932;-74
2023/09/10 00:25:53;;;;;;;;;;;;;;;27.69;43.75;101180.47;4256652;27;20345;-75
2023/09/10 00:27:56;;;;;;;;;;;;;;;27.68;43.95;101184.16;4257062;27;19931;-75
2023/09/10 00:29:58;;;;;;;;;;;;;;;27.68;43.94;101178.75;4211159;27;19923;-75
2023/09/10 00:31:59;;;;;;;;;;;;;;;27.67;43.96;101178.88;4282893;27;19923;-74
2023/09/10 00:34:02;;;;;;;;;;;;;;;27.67;43.70;101179.75;4239454;27;20294;-74
2023/09/10 00:36:04;;;;;;;;;;;;;;;27.66;43.97;101178.06;4249325;27;20443;-74
2023/09/10 00:38:05;;;;;;;;;;;;;;;27.66;44.12;101186.16;4273969;27;20336;-74
2023/09/10 00:40:08;;;;;;;;;;;;;;;27.66;43.89;101182.63;4211725;27;19932;-73
2023/09/10 00:42:09;;;;;;;;;;;;;;;27.65;44.16;101180.91;4282945;27;20004;-73
2023/09/10 00:44:11;;;;;;;;;;;;;;;27.64;44.01;101182.75;4248751;27;20095;-75
2023/09/10 00:46:13;;;;;;;;;;;;;;;27.63;43.97;101181.06;4238638;27;19922;-74
2023/09/10 00:48:14;;;;;;;;;;;;;;;27.62;43.90;101176.69;4263399;27;20281;-73
2023/09/10 00:50:17;;;;;;;;;;;;;;;27.63;44.16;101180.22;4203452;27;19963;-73
2023/09/10 00:52:21;;;;;;;;;;;;;;;27.62;44.12;101184.78;4282872;27;19930;-73
2023/09/10 00:54:23;;;;;;;;;;;;;;;27.61;44.52;101187.63;4256526;27;20454;-74
2023/09/10 00:56:25;;;;;;;;;;;;;;;27.61;43.98;101184.91;4231629;27;19922;-74
2023/09/10 00:58:27;;;;;;;;;;;;;;;27.60;44.15;101188.66;4282401;27;19958;-74
2023/09/10 01:00:29;;;;;;;;;;;;;;;27.59;43.96;101182.38;4206696;27;19978;-74
2023/09/10 01:02:31;;;;;;;;;;;;;;;27.60;43.94;101183.25;4279826;27;19952;-74
2023/09/10 01:04:33;;;;;;;;;;;;;;;27.58;44.17;101189.66;4264937;27;19923;-73
2023/09/10 01:06:34;;;;;;;;;;;;;;;27.58;43.96;101188.78;4220936;27;20303;-74
2023/09/10 01:08:36;;;;;;;;;;;;;;;27.56;43.85;101188.94;4264113;27;19923;-74
2023/09/10 01:10:47;;;;;;;;;;;;;;;27.57;44.27;101189.78;4216474;27;20374;-74
2023/09/10 01:12:54;;;;;;;;;;;;;;;27.56;44.18;101188.09;4277199;27;19923;-75
2023/09/10 01:15:04;;;;;;;;;;;;;;;27.56;44.12;101188.09;4263158;27;19923;-75
2023/09/10 01:17:18;;;;;;;;;;;;;;;27.55;44.01;101195.34;4177242;28;20011;-74
2023/09/10 01:19:34;;;;;;;;;;;;;;;27.54;44.42;101193.66;4179045;27;19925;-74
2023/09/10 01:21:41;;;;;;;;;;;;;;;27.53;44.54;101196.50;4206224;27;20356;-74
2023/09/10 01:23:43;;;;;;;;;;;;;;;27.52;44.32;101192.97;4282456;27;19958;-74
2023/09/10 01:25:49;;;;;;;;;;;;;;;27.53;44.05;101193.81;4234989;27;19932;-74
2023/09/10 01:27:51;;;;;;;;;;;;;;;27.52;44.63;101197.50;4251395;27;19923;-75
2023/09/10 01:29:57;;;;;;;;;;;;;;;27.51;44.86;101193.09;4256278;27;20044;-75
2023/09/10 01:32:05;;;;;;;;;;;;;;;27.50;44.12;101194.97;4211658;27;19923;-75
2023/09/10 01:34:08;;;;;;;;;;;;;;;27.51;44.86;101193.09;4282243;27;19927;-75
2023/09/10 01:36:30;;;;;;;;;;;;;;;27.50;44.74;101196.81;4234812;27;19924;-75
2023/09/10 01:38:37;;;;;;;;;;;;;;;27.49;44.94;101201.38;4268707;27;19929;-75
2023/09/10 01:40:50;;;;;;;;;;;;;;;27.49;44.71;101200.53;4269693;27;20017;-75
2023/09/10 01:42:51;;;;;;;;;;;;;;;27.47;44.83;101192.56;4225170;27;20010;-75
2023/09/10 01:44:53;;;;;;;;;;;;;;;27.47;44.69;101197.97;4281989;27;19930;-75
2023/09/10 01:46:55;;;;;;;;;;;;;;;27.46;44.52;101196.25;4213645;27;19928;-75
2023/09/10 01:48:57;;;;;;;;;;;;;;;27.46;44.79;101198.97;4273198;27;19927;-74
2023/09/10 01:50:59;;;;;;;;;;;;;;;27.45;44.82;101191.88;4269920;27;19930;-75
2023/09/10 01:53:00;;;;;;;;;;;;;;;27.46;44.81;101198.13;4215130;27;20589;-75
2023/09/10 01:55:02;;;;;;;;;;;;;;;27.45;44.88;101196.44;4282132;27;20001;-75
2023/09/10 01:57:04;;;;;;;;;;;;;;;27.44;44.70;101195.59;4222935;27;19929;-75
2023/09/10 01:59:06;;;;;;;;;;;;;;;27.45;44.85;101193.72;4262510;27;19975;-76
2023/09/10 02:01:07;;;;;;;;;;;;;;;27.42;45.22;101200.28;4272022;27;19988;-75
2023/09/10 02:03:09;;;;;;;;;;;;;;;27.41;44.99;101194.06;4211155;27;19958;-75
2023/09/10 02:05:10;;;;;;;;;;;;;;;27.42;44.85;101200.28;4281836;27;19927;-74
2023/09/10 02:07:12;;;;;;;;;;;;;;;27.40;44.90;101195.00;4233433;27;19977;-74
2023/09/10 02:09:14;;;;;;;;;;;;;;;27.41;45.26;101201.28;4251748;27;20025;-75
2023/09/10 02:11:15;;;;;;;;;;;;;;;27.40;45.25;101189.63;4271636;27;20021;-75
2023/09/10 02:13:17;;;;;;;;;;;;;;;27.40;44.98;101195.00;4211076;27;20368;-75
2023/09/10 02:15:19;;;;;;;;;;;;;;;27.38;44.99;101188.06;4281610;27;20025;-75
2023/09/10 02:17:20;;;;;;;;;;;;;;;27.38;45.24;101182.66;4226737;27;19947;-75
2023/09/10 02:19:22;;;;;;;;;;;;;;;27.37;45.35;101180.97;4240437;27;19922;-74
2023/09/10 02:21:23;;;;;;;;;;;;;;;27.37;45.35;101181.81;4278646;27;19923;-75
2023/09/10 02:23:25;;;;;;;;;;;;;;;27.36;45.01;101195.47;4205483;27;19968;-75
2023/09/10 02:25:27;;;;;;;;;;;;;;;27.36;45.16;101193.59;4281295;27;19922;-75
2023/09/10 02:27:28;;;;;;;;;;;;;;;27.34;45.42;101190.22;4255526;27;19922;-74
2023/09/10 02:29:30;;;;;;;;;;;;;;;27.34;45.17;101195.63;4229897;27;20300;-75
2023/09/10 02:31:32;;;;;;;;;;;;;;;27.34;45.19;101194.75;4280641;27;20021;-75
2023/09/10 02:33:34;;;;;;;;;;;;;;;27.34;45.18;101205.56;4208347;27;20064;-74
2023/09/10 02:35:36;;;;;;;;;;;;;;;27.33;45.21;101193.06;4277432;27;19927;-74
2023/09/10 02:37:40;;;;;;;;;;;;;;;27.33;45.12;101201.16;4263957;27;19923;-74
2023/09/10 02:39:42;;;;;;;;;;;;;;;27.32;45.42;101196.78;4222944;27;19923;-73
2023/09/10 02:41:45;;;;;;;;;;;;;;;27.31;45.35;101203.19;4280552;27;20017;-74
2023/09/10 02:43:47;;;;;;;;;;;;;;;27.30;45.39;101205.03;4214400;27;20023;-74
2023/09/10 02:45:48;;;;;;;;;;;;;;;27.30;45.69;101199.63;4270657;27;19931;-74
2023/09/10 02:47:50;;;;;;;;;;;;;;;27.30;45.38;101198.78;4272244;27;19930;-74
2023/09/10 02:49:51;;;;;;;;;;;;;;;27.29;45.45;101197.09;4182745;28;19924;-74
2023/09/10 02:51:54;;;;;;;;;;;;;;;27.29;45.52;101199.78;4193268;27;20358;-74
2023/09/10 02:53:56;;;;;;;;;;;;;;;27.29;45.39;101199.78;4237312;27;20425;-75
2023/09/10 02:55:58;;;;;;;;;;;;;;;27.27;45.77;101194.53;4198101;27;19925;-74
2023/09/10 02:57:59;;;;;;;;;;;;;;;27.27;45.72;101202.66;4185863;27;20325;-74
2023/09/10 03:00:01;;;;;;;;;;;;;;;27.25;45.40;101202.78;4247000;27;19931;-74
2023/09/10 03:02:03;;;;;;;;;;;;;;;27.25;45.71;101196.53;4177052;28;19925;-73
2023/09/10 03:04:04;;;;;;;;;;;;;;;27.25;45.85;101194.66;4224129;27;19926;-74
2023/09/10 03:06:10;;;;;;;;;;;;;;;27.25;45.89;101191.13;4207988;27;19929;-74
2023/09/10 03:08:11;;;;;;;;;;;;;;;27.24;45.46;101184.03;4182652;27;20100;-74
2023/09/10 03:10:13;;;;;;;;;;;;;;;27.23;45.83;101185.91;4248963;27;19933;-74
2023/09/10 03:12:18;;;;;;;;;;;;;;;27.23;45.85;101191.28;4177106;28;19925;-74
2023/09/10 03:14:20;;;;;;;;;;;;;;;27.23;45.68;101185.03;4219115;27;19926;-74
2023/09/10 03:16:23;;;;;;;;;;;;;;;27.21;45.97;101184.34;4217704;27;19928;-74
2023/09/10 03:18:24;;;;;;;;;;;;;;;27.20;45.81;101179.94;4194667;27;20027;-74
2023/09/10 03:20:26;;;;;;;;;;;;;;;27.21;45.79;101181.66;4209425;27;19929;-74
2023/09/10 03:22:28;;;;;;;;;;;;;;;27.19;46.11;101173.69;4281296;27;19923;-74
2023/09/10 03:24:33;;;;;;;;;;;;;;;27.19;45.98;101170.16;4248917;27;19967;-74
2023/09/10 03:26:34;;;;;;;;;;;;;;;27.18;45.76;101172.00;4238631;27;19958;-75
2023/09/10 03:28:36;;;;;;;;;;;;;;;27.17;46.04;101170.31;4281618;27;19981;-75
2023/09/10 03:30:38;;;;;;;;;;;;;;;27.17;45.92;101170.31;4253001;27;20009;-74
2023/09/10 03:32:40;;;;;;;;;;;;;;;27.17;46.16;101164.03;4179800;28;19960;-74
2023/09/10 03:34:42;;;;;;;;;;;;;;;27.16;46.02;101162.34;4204502;27;19925;-75
2023/09/10 03:36:44;;;;;;;;;;;;;;;27.15;46.11;101166.06;4232537;27;19931;-74
2023/09/10 03:38:45;;;;;;;;;;;;;;;27.15;45.97;101171.47;4179621;28;19925;-74
2023/09/10 03:40:46;;;;;;;;;;;;;;;27.14;45.92;101170.59;4251378;27;19927;-74
2023/09/10 03:42:50;;;;;;;;;;;;;;;27.14;46.29;101169.75;4183500;27;20382;-74
2023/09/10 03:44:51;;;;;;;;;;;;;;;27.13;46.25;101166.19;4195141;27;19931;-74
2023/09/10 03:46:53;;;;;;;;;;;;;;;27.13;46.13;101176.16;4241915;27;19956;-74
2023/09/10 03:48:55;;;;;;;;;;;;;;;27.12;45.89;101166.34;4179710;28;20013;-74
2023/09/10 03:50:56;;;;;;;;;;;;;;;27.11;46.24;101168.22;4242194;27;19933;-74
2023/09/10 03:52:58;;;;;;;;;;;;;;;27.10;45.97;101172.75;4193986;27;19935;-74
2023/09/10 03:54:59;;;;;;;;;;;;;;;27.09;45.97;101165.66;4188363;27;19952;-74
2023/09/10 03:57:01;;;;;;;;;;;;;;;27.10;46.37;101169.22;4249908;27;19928;-74
2023/09/10 03:59:02;;;;;;;;;;;;;;;27.08;45.94;101166.66;4179562;28;19925;-74
2023/09/10 04:01:04;;;;;;;;;;;;;;;27.08;46.10;101171.22;4230018;27;19927;-75
2023/09/10 04:03:06;;;;;;;;;;;;;;;27.06;46.25;101171.38;4205329;27;19925;-75
2023/09/10 04:05:09;;;;;;;;;;;;;;;27.07;46.24;101175.78;4187500;27;19975;-74
2023/09/10 04:07:10;;;;;;;;;;;;;;;27.06;46.09;101173.19;4249498;27;19932;-74
2023/09/10 04:09:12;;;;;;;;;;;;;;;27.05;46.22;101161.56;4179426;28;19971;-74
2023/09/10 04:11:13;;;;;;;;;;;;;;;27.05;46.40;101166.97;4220044;27;19962;-74
2023/09/10 04:13:15;;;;;;;;;;;;;;;27.04;46.28;101170.66;4215325;27;20028;-73
2023/09/10 04:15:17;;;;;;;;;;;;;;;27.03;46.16;101168.97;4186300;27;19929;-76
2023/09/10 04:17:18;;;;;;;;;;;;;;;27.03;46.44;101165.44;4201169;27;19968;-74
2023/09/10 04:19:21;;;;;;;;;;;;;;;27.02;46.44;101172.66;4283362;27;20387;-74
2023/09/10 04:21:23;;;;;;;;;;;;;;;27.02;46.56;101166.41;4249860;27;19925;-75
2023/09/10 04:23:24;;;;;;;;;;;;;;;27.01;46.58;101164.72;4237929;27;19926;-74
2023/09/10 04:25:26;;;;;;;;;;;;;;;27.01;46.51;101167.41;4283038;27;19985;-74
2023/09/10 04:27:28;;;;;;;;;;;;;;;27.00;46.45;101165.72;4257277;27;20304;-74
2023/09/10 04:29:30;;;;;;;;;;;;;;;27.00;46.25;101166.59;4179080;28;19955;-74
2023/09/10 04:31:35;;;;;;;;;;;;;;;26.99;46.19;101170.28;4199139;27;19925;-74
2023/09/10 04:33:36;;;;;;;;;;;;;;;26.99;46.08;101164.00;4232241;27;19929;-74
2023/09/10 04:35:41;;;;;;;;;;;;;;;26.99;46.45;101172.13;4178602;28;19924;-74
2023/09/10 04:37:43;;;;;;;;;;;;;;;26.98;46.27;101170.44;4253198;27;20002;-74
2023/09/10 04:39:45;;;;;;;;;;;;;;;26.96;46.34;101167.88;4181954;27;20003;-74
2023/09/10 04:41:46;;;;;;;;;;;;;;;26.96;46.54;101167.88;4193962;27;19978;-74
2023/09/10 04:43:48;;;;;;;;;;;;;;;26.94;46.36;101168.03;4239906;27;19929;-74
2023/09/10 04:45:50;;;;;;;;;;;;;;;26.94;46.57;101168.03;4178659;28;20016;-75
2023/09/10 04:47:51;;;;;;;;;;;;;;;26.93;46.30;101168.19;4242200;27;19981;-74
2023/09/10 04:49:53;;;;;;;;;;;;;;;26.93;46.39;101165.50;4192095;27;19929;-74
2023/09/10 04:51:54;;;;;;;;;;;;;;;26.92;46.49;101175.41;4186634;27;19931;-74
2023/09/10 04:53:56;;;;;;;;;;;;;;;26.93;46.25;101170.88;4248827;27;19928;-74
2023/09/10 04:55:58;;;;;;;;;;;;;;;26.92;46.73;101171.88;4178719;28;19964;-74
2023/09/10 04:58:00;;;;;;;;;;;;;;;26.91;46.85;101179.13;4232151;27;19923;-74
2023/09/10 05:00:02;;;;;;;;;;;;;;;26.91;46.30;101172.88;4197560;27;20298;-74
2023/09/10 05:02:04;;;;;;;;;;;;;;;26.90;46.68;101181.97;4198831;27;20356;-73
2023/09/10 05:04:06;;;;;;;;;;;;;;;26.88;46.55;101171.34;4248619;27;19971;-73
2023/09/10 05:06:09;;;;;;;;;;;;;;;26.88;46.75;101170.47;4177317;28;20072;-74
2023/09/10 05:08:10;;;;;;;;;;;;;;;26.87;46.70;101169.63;4222723;27;20042;-74
2023/09/10 05:10:12;;;;;;;;;;;;;;;26.87;46.63;101175.03;4211346;27;20003;-73
2023/09/10 05:12:14;;;;;;;;;;;;;;;26.87;46.64;101176.91;4183427;27;20360;-74
2023/09/10 05:14:20;;;;;;;;;;;;;;;26.86;46.51;101178.72;4251531;27;19923;-74
2023/09/10 05:16:22;;;;;;;;;;;;;;;26.86;46.39;101175.19;4183842;28;20856;-73
2023/09/10 05:18:24;;;;;;;;;;;;;;;26.85;46.74;101174.31;4210499;27;19934;-74
2023/09/10 05:20:26;;;;;;;;;;;;;;;26.85;46.50;101177.03;4242654;27;20636;-74
2023/09/10 05:22:28;;;;;;;;;;;;;;;26.86;46.86;101177.88;4277606;27;19933;-73
2023/09/10 05:24:29;;;;;;;;;;;;;;;26.84;46.50;101174.47;4208671;27;19925;-73
2023/09/10 05:26:31;;;;;;;;;;;;;;;26.84;46.56;101179.88;4282354;27;20307;-74
2023/09/10 05:28:33;;;;;;;;;;;;;;;26.83;46.67;101176.34;4254221;27;19929;-74
2023/09/10 05:30:37;;;;;;;;;;;;;;;26.82;46.59;101180.03;4231851;27;19922;-75
2023/09/10 05:32:39;;;;;;;;;;;;;;;26.82;46.63;101179.16;4282006;27;19965;-74
2023/09/10 05:34:40;;;;;;;;;;;;;;;26.80;46.55;101184.72;4203458;27;19931;-74
2023/09/10 05:36:42;;;;;;;;;;;;;;;26.82;46.59;101181.88;4178209;28;19980;-74
2023/09/10 05:38:44;;;;;;;;;;;;;;;26.81;46.92;101180.19;4204278;27;20276;-74
2023/09/10 05:40:45;;;;;;;;;;;;;;;26.81;46.59;101182.88;4223654;27;19922;-74
2023/09/10 05:42:47;;;;;;;;;;;;;;;26.80;46.62;101176.63;4281775;27;20356;-74
2023/09/10 05:44:52;;;;;;;;;;;;;;;26.78;46.99;101173.22;4215164;27;20007;-73
2023/09/10 05:46:54;;;;;;;;;;;;;;;26.79;46.74;101177.63;4274214;27;19975;-74
2023/09/10 05:48:55;;;;;;;;;;;;;;;26.77;46.66;101180.47;4269805;27;19923;-74
2023/09/10 05:50:57;;;;;;;;;;;;;;;26.78;46.55;101184.00;4214721;27;19927;-74
2023/09/10 05:52:59;;;;;;;;;;;;;;;26.77;46.95;101183.19;4282016;27;20017;-74
2023/09/10 05:55:01;;;;;;;;;;;;;;;26.77;46.68;101180.47;4222050;27;19942;-74
2023/09/10 05:57:03;;;;;;;;;;;;;;;26.76;47.02;101186.88;4264302;27;19945;-73
2023/09/10 05:59:05;;;;;;;;;;;;;;;26.76;46.62;101183.34;4272792;27;20025;-73
2023/09/10 06:01:07;;;;;;;;;;;;;;;26.76;46.70;101186.03;4210416;27;19945;-73
2023/09/10 06:03:09;;;;;;;;;;;;;;;26.75;46.76;101190.56;4281198;27;19923;-73
2023/09/10 06:05:11;;;;;;;;;;;;;;;26.74;46.92;101196.91;4231087;27;19952;-73
2023/09/10 06:07:13;;;;;;;;;;;;;;;26.74;46.93;101198.78;4254668;27;19926;-74
2023/09/10 06:09:17;;;;;;;;;;;;;;;26.74;46.93;101196.09;4272752;27;19923;-74
2023/09/10 06:11:19;;;;;;;;;;;;;;;26.73;46.96;101192.56;4210329;27;19927;-73
2023/09/10 06:13:20;;;;;;;;;;;;;;;26.72;47.05;101196.25;4263275;27;20427;-73
2023/09/10 06:15:23;;;;;;;;;;;;;;;26.73;46.86;101191.69;4239596;27;19985;-74
2023/09/10 06:17:25;;;;;;;;;;;;;;;26.74;46.76;101198.78;4176188;28;20008;-74
2023/09/10 06:19:26;;;;;;;;;;;;;;;26.71;46.99;101202.63;4200331;27;19932;-74
2023/09/10 06:21:29;;;;;;;;;;;;;;;26.71;47.13;101197.25;4199473;27;19995;-74
2023/09/10 06:23:31;;;;;;;;;;;;;;;26.71;46.87;101199.94;4281469;27;19923;-73
2023/09/10 06:25:33;;;;;;;;;;;;;;;26.71;46.94;101196.38;4248074;27;20440;-74
2023/09/10 06:27:35;;;;;;;;;;;;;;;26.70;46.85;101194.69;4237476;27;19975;-74
2023/09/10 06:29:36;;;;;;;;;;;;;;;26.70;47.01;101205.50;4280757;27;19923;-74
2023/09/10 06:31:38;;;;;;;;;;;;;;;26.71;47.20;101196.38;4201882;27;19970;-74
2023/09/10 06:33:39;;;;;;;;;;;;;;;26.70;46.85;101200.09;4281611;27;20001;-74
2023/09/10 06:35:41;;;;;;;;;;;;;;;26.69;47.19;101193.81;4258634;27;19927;-75
2023/09/10 06:37:43;;;;;;;;;;;;;;;26.70;46.99;101200.09;4226695;27;19927;-75
2023/09/10 06:39:45;;;;;;;;;;;;;;;26.68;46.82;101200.22;4281238;27;19923;-74
2023/09/10 06:41:47;;;;;;;;;;;;;;;26.68;46.77;101202.91;4202658;27;19939;-73
2023/09/10 06:43:48;;;;;;;;;;;;;;;26.69;46.89;101209.19;4275921;27;19929;-74
2023/09/10 06:45:51;;;;;;;;;;;;;;;26.69;46.84;101206.47;4251901;27;19959;-74
2023/09/10 06:47:52;;;;;;;;;;;;;;;26.68;46.86;101202.09;4227579;27;19937;-73
2023/09/10 06:49:54;;;;;;;;;;;;;;;26.68;46.94;101208.31;4281268;27;19930;-74
2023/09/10 06:51:56;;;;;;;;;;;;;;;26.68;47.08;101202.91;4219791;27;20394;-73
2023/09/10 06:53:58;;;;;;;;;;;;;;;26.68;47.01;101204.78;4265085;27;20018;-74
2023/09/10 06:56:00;;;;;;;;;;;;;;;26.68;46.79;101210.19;4271921;27;19931;-74
2023/09/10 06:58:01;;;;;;;;;;;;;;;26.67;46.85;101206.59;4211010;27;19923;-74
2023/09/10 07:00:03;;;;;;;;;;;;;;;26.67;47.07;101201.22;4281093;27;19955;-74
2023/09/10 07:02:06;;;;;;;;;;;;;;;26.67;47.21;101201.22;4229190;27;19929;-74
2023/09/10 07:04:18;;;;;;;;;;;;;;;26.66;46.95;101202.25;4257443;27;19930;-74
2023/09/10 07:06:19;;;;;;;;;;;;;;;26.67;46.91;101206.59;4276039;27;19951;-75
2023/09/10 07:08:21;;;;;;;;;;;;;;;26.68;47.13;101207.47;4213601;27;20004;-75
2023/09/10 07:10:22;;;;;;;;;;;;;;;26.68;47.15;101210.19;4284648;27;20284;-74
2023/09/10 07:12:24;;;;;;;;;;;;;;;26.67;46.90;101206.59;4234181;27;19961;-74
2023/09/10 07:14:26;;;;;;;;;;;;;;;26.67;47.13;101209.31;4255989;27;19923;-74
2023/09/10 07:16:28;;;;;;;;;;;;;;;26.68;46.79;101204.78;4257879;27;19937;-74
2023/09/10 07:18:33;;;;;;;;;;;;;;;26.67;46.90;101203.91;4213835;27;20009;-74
2023/09/10 07:20:34;;;;;;;;;;;;;;;26.68;47.03;101210.19;4284432;27;19929;-74
2023/09/10 07:22:36;;;;;;;;;;;;;;;26.68;46.95;101212.88;4229576;27;19928;-74
2023/09/10 07:24:37;;;;;;;;;;;;;;;26.68;47.05;101207.47;4254261;27;19930;-73
2023/09/10 07:26:39;;;;;;;;;;;;;;;26.70;46.70;101208.19;4276474;27;20298;-74
2023/09/10 07:28:41;;;;;;;;;;;;;;;26.69;47.09;101214.56;4213333;27;20000;-74
2023/09/10 07:30:43;;;;;;;;;;;;;;;26.70;47.00;101218.97;4284139;27;20383;-73
2023/09/10 07:32:46;;;;;;;;;;;;;;;26.70;46.71;101225.22;4250299;27;20243;-73
2023/09/10 07:34:48;;;;;;;;;;;;;;;26.71;46.93;101218.81;4239221;27;20288;-74
2023/09/10 07:36:49;;;;;;;;;;;;;;;26.72;46.95;101217.81;4283125;27;19926;-74
2023/09/10 07:38:52;;;;;;;;;;;;;;;26.73;46.69;101219.53;4205416;27;19925;-74
2023/09/10 07:40:53;;;;;;;;;;;;;;;26.74;46.76;101218.50;4284041;27;19951;-74
2023/09/10 07:42:58;;;;;;;;;;;;;;;26.75;46.61;101224.81;4260089;27;19922;-74
2023/09/10 07:45:00;;;;;;;;;;;;;;;26.76;46.48;101231.91;4231815;27;19923;-74
2023/09/10 07:47:02;;;;;;;;;;;;;;;26.76;46.31;101235.44;4284135;27;19926;-74
2023/09/10 07:49:04;;;;;;;;;;;;;;;26.78;46.44;101235.28;4209981;27;19925;-74
2023/09/10 07:51:05;;;;;;;;;;;;;;;26.79;46.53;101234.28;4278835;27;19934;-74
2023/09/10 07:53:07;;;;;;;;;;;;;;;26.80;46.24;101232.47;4268335;27;19946;-74
2023/09/10 07:55:08;;;;;;;;;;;;;;;26.81;46.14;101231.47;4221176;27;20452;-73
2023/09/10 07:57:10;;;;;;;;;;;;;;;26.83;45.93;101232.16;4283912;27;20358;-74
2023/09/10 07:59:14;;;;;;;;;;;;;;;26.84;46.05;101231.16;4218852;27;19925;-74
2023/09/10 08:01:16;;;;;;;;;;;;;;;26.84;46.38;101218.50;4270169;27;19970;-74
2023/09/10 08:03:18;;;;;;;;;;;;;;;26.84;45.97;101226.59;4274890;27;19923;-74
2023/09/10 08:05:21;;;;;;;;;;;;;;;26.85;46.07;101220.19;4166968;28;19936;-73
2023/09/10 08:07:25;;;;;;;;;;;;;;;26.87;46.06;101223.59;4195998;28;19931;-74
2023/09/10 08:09:26;;;;;;;;;;;;;;;26.86;45.71;101219.19;4239876;27;19930;-74
2023/09/10 08:11:28;;;;;;;;;;;;;;;26.88;45.64;101222.63;4199221;27;20329;-74
2023/09/10 08:13:29;;;;;;;;;;;;;;;26.88;45.43;101225.31;4187298;27;19922;-74
2023/09/10 08:15:32;;;;;;;;;;;;;;;26.89;45.79;101228.84;4236632;27;20365;-74
2023/09/10 08:17:35;;;;;;;;;;;;;;;26.91;44.99;101221.47;4195787;28;19936;-74
2023/09/10 08:19:37;;;;;;;;;;;;;;;26.91;45.51;101229.56;4209392;27;20016;-73
2023/09/10 08:21:38;;;;;;;;;;;;;;;26.91;44.38;101226.84;4253404;27;19950;-74
2023/09/10 08:23:41;;;;;;;;;;;;;;;26.91;45.47;101227.69;4274230;27;19923;-74
2023/09/10 08:25:43;;;;;;;;;;;;;;;26.91;45.34;101222.28;4212925;27;20372;-74
2023/09/10 08:27:45;;;;;;;;;;;;;;;26.92;45.59;101221.31;4282883;27;19922;-74
2023/09/10 08:29:46;;;;;;;;;;;;;;;26.92;45.11;101218.59;4232340;27;19985;-73
2023/09/10 08:31:48;;;;;;;;;;;;;;;26.93;44.63;101217.59;4249398;27;19926;-73
2023/09/10 08:33:50;;;;;;;;;;;;;;;26.95;45.05;101220.16;4279167;27;20348;-74
2023/09/10 08:35:52;;;;;;;;;;;;;;;26.96;44.84;101215.63;4209054;27;19983;-74
2023/09/10 08:37:54;;;;;;;;;;;;;;;26.96;44.85;101218.31;4264517;27;19927;-73
2023/09/10 08:39:56;;;;;;;;;;;;;;;26.97;44.29;101211.94;4254617;27;19981;-74
2023/09/10 08:42:02;;;;;;;;;;;;;;;26.96;44.78;101216.44;4233238;27;20028;-74
2023/09/10 08:44:05;;;;;;;;;;;;;;;26.98;44.88;101219.03;4282260;27;19927;-75
2023/09/10 08:46:13;;;;;;;;;;;;;;;27.00;44.87;101215.16;4252976;27;19929;-74
2023/09/10 08:48:17;;;;;;;;;;;;;;;27.01;44.80;101213.31;4179031;28;20011;-74
2023/09/10 08:50:20;;;;;;;;;;;;;;;27.03;44.91;101214.03;4209222;27;19984;-74
2023/09/10 08:52:22;;;;;;;;;;;;;;;27.04;44.27;101211.16;4223583;27;19986;-74
2023/09/10 08:54:24;;;;;;;;;;;;;;;27.06;44.44;101205.59;4178832;27;20362;-74
2023/09/10 08:56:31;;;;;;;;;;;;;;;27.06;44.93;101209.16;4254541;27;19922;-74
2023/09/10 08:58:37;;;;;;;;;;;;;;;27.08;44.39;101214.41;4178916;28;19924;-74
2023/09/10 09:00:40;;;;;;;;;;;;;;;27.08;44.76;101212.53;4208952;27;19930;-75
2023/09/10 09:02:43;;;;;;;;;;;;;;;27.09;44.71;101211.53;4224417;27;19975;-74
2023/09/10 09:04:45;;;;;;;;;;;;;;;27.12;44.25;101206.84;4177866;27;19960;-74
2023/09/10 09:06:51;;;;;;;;;;;;;;;27.12;43.94;101206.84;4204043;27;20339;-74
2023/09/10 09:08:56;;;;;;;;;;;;;;;27.13;43.87;101203.16;4282909;27;19923;-74
2023/09/10 09:11:05;;;;;;;;;;;;;;;27.12;43.85;101202.28;4253102;27;19925;-76
2023/09/10 09:13:08;;;;;;;;;;;;;;;27.14;43.80;101197.59;4238876;27;19929;-74
2023/09/10 09:15:11;;;;;;;;;;;;;;;27.14;44.07;101197.59;4280671;27;19927;-75
2023/09/10 09:17:15;;;;;;;;;;;;;;;27.15;44.08;101202.00;4216592;27;20339;-74
2023/09/10 09:19:17;;;;;;;;;;;;;;;27.15;43.79;101191.19;4282314;27;19923;-74
2023/09/10 09:21:19;;;;;;;;;;;;;;;27.16;43.80;101192.91;4252884;27;19968;-69
2023/09/10 09:23:25;;;;;;;;;;;;;;;27.17;43.63;101194.63;4233721;27;20524;-70
2023/09/10 09:25:26;;;;;;;;;;;;;;;27.19;44.11;101189.88;4281065;27;19922;-71
2023/09/10 09:27:29;;;;;;;;;;;;;;;27.18;44.42;101190.91;4203653;27;19931;-71
2023/09/10 09:29:31;;;;;;;;;;;;;;;27.18;43.60;101187.34;4282301;27;19930;-74
2023/09/10 09:31:32;;;;;;;;;;;;;;;27.21;43.50;101185.19;4258624;27;19929;-74
2023/09/10 09:33:34;;;;;;;;;;;;;;;27.23;43.31;101191.28;4226736;27;19922;-74
2023/09/10 09:35:36;;;;;;;;;;;;;;;27.25;43.17;101183.88;4281910;27;19926;-74
2023/09/10 09:37:38;;;;;;;;;;;;;;;27.27;42.92;101189.13;4212132;27;19931;-74
2023/09/10 09:39:45;;;;;;;;;;;;;;;27.27;42.94;101179.19;4274497;27;20002;-73
2023/09/10 09:41:49;;;;;;;;;;;;;;;27.29;42.65;101170.91;4264006;27;19957;-74
2023/09/10 09:43:51;;;;;;;;;;;;;;;27.30;42.55;101169.91;4223760;27;19923;-74
2023/09/10 09:45:52;;;;;;;;;;;;;;;27.31;42.71;101166.22;4281921;27;19923;-74
2023/09/10 09:47:54;;;;;;;;;;;;;;;27.31;42.74;101163.50;4215571;27;19929;-74
2023/09/10 09:49:56;;;;;;;;;;;;;;;27.32;42.94;101165.22;4270524;27;19923;-73
2023/09/10 09:51:58;;;;;;;;;;;;;;;27.34;42.82;101163.22;4272172;27;19923;-73
2023/09/10 09:54:00;;;;;;;;;;;;;;;27.34;42.75;101159.66;4212650;27;19927;-70
2023/09/10 09:56:08;;;;;;;;;;;;;;;27.35;42.70;101162.22;4281936;27;19922;-72
2023/09/10 09:58:17;;;;;;;;;;;;;;;27.38;42.77;101161.06;4215555;27;19925;-74
2023/09/10 10:00:18;;;;;;;;;;;;;;;27.39;42.85;101160.06;4272584;27;20443;-73
2023/09/10 10:02:20;;;;;;;;;;;;;;;27.38;42.85;101156.50;4253801;27;19927;-73
2023/09/10 10:04:22;;;;;;;;;;;;;;;27.40;42.96;101164.44;4206917;27;19995;-73
2023/09/10 10:06:30;;;;;;;;;;;;;;;27.41;42.77;101164.34;4263849;27;20032;-73
2023/09/10 10:08:37;;;;;;;;;;;;;;;27.41;43.04;101166.16;4213753;27;19925;-74
2023/09/10 10:10:44;;;;;;;;;;;;;;;27.43;42.66;101164.16;4271805;27;19970;-74
2023/09/10 10:12:46;;;;;;;;;;;;;;;27.44;42.80;101157.78;4266377;27;19929;-74
2023/09/10 10:14:47;;;;;;;;;;;;;;;27.45;42.78;101166.72;4218350;27;20384;-73
2023/09/10 10:16:50;;;;;;;;;;;;;;;27.46;42.94;101163.84;4234449;27;19955;-74
2023/09/10 10:18:52;;;;;;;;;;;;;;;27.46;42.82;101153.03;4205853;27;20306;-73
2023/09/10 10:20:59;;;;;;;;;;;;;;;27.47;43.09;101157.44;4271470;27;19923;-73
2023/09/10 10:23:07;;;;;;;;;;;;;;;27.49;42.80;101157.31;4265828;27;19927;-73
2023/09/10 10:25:25;;;;;;;;;;;;;;;27.48;42.59;101151.03;4224696;27;20018;-74
2023/09/10 10:27:29;;;;;;;;;;;;;;;27.51;42.89;101164.25;4281499;27;19926;-74
2023/09/10 10:29:32;;;;;;;;;;;;;;;27.52;42.63;101156.97;4255613;27;19952;-73